Dutton, AL (35744)

1:28 AM CDT on June 30, 2015 (GMT -0500)
Half mile from the bluff | | Change Station
CLOSE
Current Station
Personal Weather Station
Location: Pisgah, AL
Elevation: 1424 ft
Nearby Weather Stations

Elev 1424 ft 34.70 °N, 85.88 °W | Updated 0 second ago

Partly Cloudy
Partly Cloudy
70.7 °F
Feels Like 72 °F
N
1.1
Wind Variable Wind from ESE
Gusts 2.5 mph

Today
High -- | Low -- °F
--% Chance of Precip.
Yesterday
High -- | Low -- °F
Precip. -- in
5:33 AM 8:00 PM
Waxing Gibbous, 96% visible
Pressure 29.99 in
Visibility 10.0 miles
Clouds Scattered Clouds 6000 ft
Scattered Clouds 7000 ft
Overcast 9500 ft
Heat Index 72 °F
Dew Point 64 °F
Humidity 79%
Rainfall in
Snow Depth Not available.
UV 0.0 out of 12
Pollen 3.40 out of 12
Air Quality Not available.
Flu Activity Sporadic
METAR K4A9 300415Z AUTO 00000KT 10SM SCT060 SCT070 OVC095 20/17 A2999 RMK AO2

More Conditions Fewer Conditions

Pressure 29.99 in
Visibility 10.0 miles
Clouds Scattered Clouds 6000 ft
Scattered Clouds 7000 ft
Overcast 9500 ft
Heat Index 72 °F
Dew Point 64 °F
Humidity 79%
Rainfall in
Snow Depth Not available.
UV 0.0 out of 12
Pollen 3.40 out of 12
Air Quality Not available.
Flu Activity Sporadic
METAR K4A9 300415Z AUTO 00000KT 10SM SCT060 SCT070 OVC095 20/17 A2999 RMK AO2

More Conditions Fewer Conditions

10-Day Weather Forecast

×

Almanac

Astronomy

Jun. 30, 2015 Rise Set
Actual Time
Civil Twilight
Nautical Twilight
Astronomical Twilight
Moon
Length of Visible Light
Length of Day
Tomorrow will be .
, % of the Moon is Illuminated

Today's Extremes

State Highs State Lows

Community

WunderPhotos

Upload Photos

1,833,971 photos uploaded!

WunderBlogs® & News

Nearby

Air Quality

  Air Quality AQ Index Pollutant
Not available.

Snow Depth

Station Depth Elevation

Earthquake Activity

City Distance Mag. Time & Date
Minimum magnitude displayed is 2.5.

Coastal Water Temperatures

Place Temperature

Stations

Nearby Weather Stations

Station Location Temp. Windchill Dew Point Humidity Wind Precip. Elev Updated Type